PWSweather.com
Personal Weather Stations
Station Observations
IPORTUGA89
BarosaPT

BarosaPT

Lat: 39.754028, Lon: -8.843

Elevation: 98

Station Type: Davis Vp2

High Low Average
Temperature 77.7°F25.4°C 59.0°F15.0°C 67.6°F19.8°C
Dew Point 63.7°F17.6°C 57.2°F14.0°C 61.2°F16.2°C
Winds 12.1 mph 19.5 kmh Calm Calm 5.0 mph W8.0 kmh W
Wind Gusts 19.9 mph32.0 kmh 0.9 mph1.4 kmh 9.0 mph14.5 kmh
Humidity 94% 58% 81%
Pressure 30.22 in1023.4 mb 30.14 in1020.7 mb -
Precipitation 0.00 in0.0 mm - -
Hour Temp Dew Point Humidity Winds Wind Gusts Pressure Precip Precip Rate Daily Precip Total
12:05 AM 59.0°F15.0°C 57.2°F14.0°C 94% Calm Calm 0.9 mph1.4 kmh 30.21 in1023.0 mb 0.00 in0.0 mm 0.00 in0.0 mm 0.00 in0.0 mm
12:15 AM 59.4°F15.2°C 57.6°F14.2°C 94% Calm Calm 2.0 mph3.2 kmh 30.21 in1023.0 mb 0.00 in0.0 mm 0.00 in0.0 mm 0.00 in0.0 mm
12:25 AM 60.1°F15.6°C 58.3°F14.6°C 94% Calm Calm 2.0 mph3.2 kmh 30.21 in1023.0 mb 0.00 in0.0 mm 0.00 in0.0 mm 0.00 in0.0 mm
12:36 AM 60.6°F15.9°C 58.8°F14.9°C 94% 0.9 mph WNW1.4 kmh WNW 2.0 mph3.2 kmh 30.21 in1023.0 mb 0.00 in0.0 mm 0.00 in0.0 mm 0.00 in0.0 mm
12:46 AM 61.5°F16.4°C 59.7°F15.4°C 94% 2.0 mph NW3.2 kmh NW 4.0 mph6.4 kmh 30.20 in1022.7 mb 0.00 in0.0 mm 0.00 in0.0 mm 0.00 in0.0 mm
12:56 AM 62.1°F16.7°C 60.3°F15.7°C 94% 2.9 mph NW4.7 kmh NW 4.9 mph7.9 kmh 30.20 in1022.7 mb 0.00 in0.0 mm 0.00 in0.0 mm 0.00 in0.0 mm
01:06 AM 62.1°F16.7°C 60.3°F15.7°C 94% 2.9 mph NW4.7 kmh NW 4.9 mph7.9 kmh 30.20 in1022.7 mb 0.00 in0.0 mm 0.00 in0.0 mm 0.00 in0.0 mm
01:16 AM 62.2°F16.8°C 60.4°F15.8°C 94% 2.0 mph NW3.2 kmh NW 2.9 mph4.7 kmh 30.20 in1022.7 mb 0.00 in0.0 mm 0.00 in0.0 mm 0.00 in0.0 mm
01:26 AM 62.2°F16.8°C 60.4°F15.8°C 94% 0.9 mph NW1.4 kmh NW 2.9 mph4.7 kmh 30.20 in1022.7 mb 0.00 in0.0 mm 0.00 in0.0 mm 0.00 in0.0 mm
01:36 AM 62.2°F16.8°C 60.4°F15.8°C 94% 0.9 mph NW1.4 kmh NW 2.0 mph3.2 kmh 30.19 in1022.4 mb 0.00 in0.0 mm 0.00 in0.0 mm 0.00 in0.0 mm
01:46 AM 62.2°F16.8°C 60.4°F15.8°C 94% 0.9 mph NW1.4 kmh NW 2.0 mph3.2 kmh 30.19 in1022.4 mb 0.00 in0.0 mm 0.00 in0.0 mm 0.00 in0.0 mm
01:56 AM 62.2°F16.8°C 60.4°F15.8°C 94% 0.9 mph NW1.4 kmh NW 4.0 mph6.4 kmh 30.19 in1022.4 mb 0.00 in0.0 mm 0.00 in0.0 mm 0.00 in0.0 mm
02:06 AM 62.4°F16.9°C 60.6°F15.9°C 94% 2.0 mph NW3.2 kmh NW 4.0 mph6.4 kmh 30.19 in1022.4 mb 0.00 in0.0 mm 0.00 in0.0 mm 0.00 in0.0 mm
02:16 AM 62.8°F17.1°C 61.0°F16.1°C 94% 2.9 mph NNW4.7 kmh NNW 6.0 mph9.7 kmh 30.19 in1022.4 mb 0.00 in0.0 mm 0.00 in0.0 mm 0.00 in0.0 mm
02:26 AM 63.0°F17.2°C 61.2°F16.2°C 94% 2.9 mph NW4.7 kmh NW 4.9 mph7.9 kmh 30.19 in1022.4 mb 0.00 in0.0 mm 0.00 in0.0 mm 0.00 in0.0 mm
02:36 AM 63.0°F17.2°C 61.2°F16.2°C 94% 2.0 mph NNW3.2 kmh NNW 4.9 mph7.9 kmh 30.19 in1022.4 mb 0.00 in0.0 mm 0.00 in0.0 mm 0.00 in0.0 mm
02:46 AM 63.1°F17.3°C 61.3°F16.3°C 94% 2.0 mph NNW3.2 kmh NNW 4.0 mph6.4 kmh 30.19 in1022.4 mb 0.00 in0.0 mm 0.00 in0.0 mm 0.00 in0.0 mm
02:56 AM 63.1°F17.3°C 61.2°F16.2°C 93% 0.9 mph NNW1.4 kmh NNW 2.0 mph3.2 kmh 30.18 in1022.0 mb 0.00 in0.0 mm 0.00 in0.0 mm 0.00 in0.0 mm
03:06 AM 63.0°F17.2°C 61.0°F16.1°C 93% 0.9 mph NNW1.4 kmh NNW 2.0 mph3.2 kmh 30.17 in1021.7 mb 0.00 in0.0 mm 0.00 in0.0 mm 0.00 in0.0 mm
03:16 AM 63.0°F17.2°C 61.0°F16.1°C 93% 2.0 mph NNW3.2 kmh NNW 4.0 mph6.4 kmh 30.17 in1021.7 mb 0.00 in0.0 mm 0.00 in0.0 mm 0.00 in0.0 mm
03:26 AM 63.0°F17.2°C 61.0°F16.1°C 93% 2.9 mph NNW4.7 kmh NNW 6.0 mph9.7 kmh 30.17 in1021.7 mb 0.00 in0.0 mm 0.00 in0.0 mm 0.00 in0.0 mm
03:36 AM 63.0°F17.2°C 61.0°F16.1°C 93% 2.9 mph NW4.7 kmh NW 4.9 mph7.9 kmh 30.17 in1021.7 mb 0.00 in0.0 mm 0.00 in0.0 mm 0.00 in0.0 mm
03:46 AM 63.1°F17.3°C 61.2°F16.2°C 93% 2.0 mph NW3.2 kmh NW 4.9 mph7.9 kmh 30.16 in1021.3 mb 0.00 in0.0 mm 0.00 in0.0 mm 0.00 in0.0 mm
03:56 AM 63.1°F17.3°C 61.2°F16.2°C 93% 2.0 mph NW3.2 kmh NW 4.9 mph7.9 kmh 30.17 in1021.7 mb 0.00 in0.0 mm 0.00 in0.0 mm 0.00 in0.0 mm
04:06 AM 63.1°F17.3°C 61.2°F16.2°C 93% 0.9 mph NE1.4 kmh NE 2.9 mph4.7 kmh 30.16 in1021.3 mb 0.00 in0.0 mm 0.00 in0.0 mm 0.00 in0.0 mm
04:17 AM 63.0°F17.2°C 61.0°F16.1°C 93% Calm Calm 0.9 mph1.4 kmh 30.16 in1021.3 mb 0.00 in0.0 mm 0.00 in0.0 mm 0.00 in0.0 mm
04:27 AM 62.8°F17.1°C 60.4°F15.8°C 92% Calm Calm 0.9 mph1.4 kmh 30.17 in1021.7 mb 0.00 in0.0 mm 0.00 in0.0 mm 0.00 in0.0 mm
04:37 AM 62.8°F17.1°C 60.8°F16.0°C 93% Calm Calm 2.0 mph3.2 kmh 30.16 in1021.3 mb 0.00 in0.0 mm 0.00 in0.0 mm 0.00 in0.0 mm
04:47 AM 63.0°F17.2°C 61.0°F16.1°C 93% 2.0 mph NW3.2 kmh NW 4.0 mph6.4 kmh 30.16 in1021.3 mb 0.00 in0.0 mm 0.00 in0.0 mm 0.00 in0.0 mm
04:57 AM 63.0°F17.2°C 61.0°F16.1°C 93% 4.0 mph NW6.4 kmh NW 8.1 mph13.0 kmh 30.16 in1021.3 mb 0.00 in0.0 mm 0.00 in0.0 mm 0.00 in0.0 mm
05:07 AM 63.0°F17.2°C 61.0°F16.1°C 93% 2.9 mph NNW4.7 kmh NNW 8.1 mph13.0 kmh 30.16 in1021.3 mb 0.00 in0.0 mm 0.00 in0.0 mm 0.00 in0.0 mm
05:17 AM 63.0°F17.2°C 61.0°F16.1°C 93% 2.0 mph NNW3.2 kmh NNW 6.0 mph9.7 kmh 30.16 in1021.3 mb 0.00 in0.0 mm 0.00 in0.0 mm 0.00 in0.0 mm
05:27 AM 63.0°F17.2°C 60.6°F15.9°C 92% 2.0 mph NNW3.2 kmh NNW 2.9 mph4.7 kmh 30.16 in1021.3 mb 0.00 in0.0 mm 0.00 in0.0 mm 0.00 in0.0 mm
05:37 AM 63.0°F17.2°C 60.6°F15.9°C 92% 2.9 mph NNW4.7 kmh NNW 6.9 mph11.1 kmh 30.16 in1021.3 mb 0.00 in0.0 mm 0.00 in0.0 mm 0.00 in0.0 mm
05:48 AM 62.8°F17.1°C 60.4°F15.8°C 92% 2.0 mph NNW3.2 kmh NNW 4.0 mph6.4 kmh 30.16 in1021.3 mb 0.00 in0.0 mm 0.00 in0.0 mm 0.00 in0.0 mm
05:58 AM 62.6°F17.0°C 60.3°F15.7°C 92% 0.9 mph NW1.4 kmh NW 4.0 mph6.4 kmh 30.16 in1021.3 mb 0.00 in0.0 mm 0.00 in0.0 mm 0.00 in0.0 mm
06:08 AM 62.4°F16.9°C 60.1°F15.6°C 92% 2.9 mph NW4.7 kmh NW 4.9 mph7.9 kmh 30.16 in1021.3 mb 0.00 in0.0 mm 0.00 in0.0 mm 0.00 in0.0 mm
06:18 AM 62.4°F16.9°C 60.1°F15.6°C 92% 2.0 mph NW3.2 kmh NW 4.0 mph6.4 kmh 30.17 in1021.7 mb 0.00 in0.0 mm 0.00 in0.0 mm 0.00 in0.0 mm
06:28 AM 62.4°F16.9°C 60.1°F15.6°C 92% 2.9 mph NW4.7 kmh NW 4.9 mph7.9 kmh 30.17 in1021.7 mb 0.00 in0.0 mm 0.00 in0.0 mm 0.00 in0.0 mm
06:38 AM 62.6°F17.0°C 60.3°F15.7°C 92% 2.9 mph NNW4.7 kmh NNW 6.0 mph9.7 kmh 30.17 in1021.7 mb 0.00 in0.0 mm 0.00 in0.0 mm 0.00 in0.0 mm
06:48 AM 62.6°F17.0°C 60.3°F15.7°C 92% 2.9 mph N4.7 kmh N 8.1 mph13.0 kmh 30.17 in1021.7 mb 0.00 in0.0 mm 0.00 in0.0 mm 0.00 in0.0 mm
06:58 AM 62.8°F17.1°C 60.4°F15.8°C 92% 2.9 mph N4.7 kmh N 8.1 mph13.0 kmh 30.18 in1022.0 mb 0.00 in0.0 mm 0.00 in0.0 mm 0.00 in0.0 mm
07:08 AM 63.0°F17.2°C 60.3°F15.7°C 91% 4.0 mph N6.4 kmh N 8.9 mph14.3 kmh 30.18 in1022.0 mb 0.00 in0.0 mm 0.00 in0.0 mm 0.00 in0.0 mm
07:18 AM 63.1°F17.3°C 60.4°F15.8°C 91% 4.9 mph NNW7.9 kmh NNW 12.1 mph19.5 kmh 30.18 in1022.0 mb 0.00 in0.0 mm 0.00 in0.0 mm 0.00 in0.0 mm
07:28 AM 63.1°F17.3°C 60.4°F15.8°C 91% 4.0 mph N6.4 kmh N 8.9 mph14.3 kmh 30.19 in1022.4 mb 0.00 in0.0 mm 0.00 in0.0 mm 0.00 in0.0 mm
07:38 AM 63.5°F17.5°C 60.4°F15.8°C 90% 4.0 mph NNW6.4 kmh NNW 8.9 mph14.3 kmh 30.19 in1022.4 mb 0.00 in0.0 mm 0.00 in0.0 mm 0.00 in0.0 mm
07:48 AM 63.7°F17.6°C 60.6°F15.9°C 90% 2.9 mph NNW4.7 kmh NNW 4.9 mph7.9 kmh 30.19 in1022.4 mb 0.00 in0.0 mm 0.00 in0.0 mm 0.00 in0.0 mm
07:58 AM 64.0°F17.8°C 60.8°F16.0°C 89% 4.0 mph NW6.4 kmh NW 8.9 mph14.3 kmh 30.19 in1022.4 mb 0.00 in0.0 mm 0.00 in0.0 mm 0.00 in0.0 mm
08:08 AM 64.2°F17.9°C 61.0°F16.1°C 89% 4.0 mph N6.4 kmh N 10.1 mph16.3 kmh 30.20 in1022.7 mb 0.00 in0.0 mm 0.00 in0.0 mm 0.00 in0.0 mm
08:18 AM 64.6°F18.1°C 61.0°F16.1°C 88% 4.0 mph NW6.4 kmh NW 10.1 mph16.3 kmh 30.20 in1022.7 mb 0.00 in0.0 mm 0.00 in0.0 mm 0.00 in0.0 mm
08:28 AM 64.8°F18.2°C 60.8°F16.0°C 87% 4.9 mph NNE7.9 kmh NNE 10.1 mph16.3 kmh 30.20 in1022.7 mb 0.00 in0.0 mm 0.00 in0.0 mm 0.00 in0.0 mm
08:38 AM 64.9°F18.3°C 61.0°F16.1°C 87% 2.9 mph NW4.7 kmh NW 6.0 mph9.7 kmh 30.21 in1023.0 mb 0.00 in0.0 mm 0.00 in0.0 mm 0.00 in0.0 mm
08:48 AM 65.1°F18.4°C 60.8°F16.0°C 86% 4.9 mph NW7.9 kmh NW 10.1 mph16.3 kmh 30.21 in1023.0 mb 0.00 in0.0 mm 0.00 in0.0 mm 0.00 in0.0 mm
08:58 AM 65.5°F18.6°C 61.2°F16.2°C 86% 6.0 mph NNW9.7 kmh NNW 8.9 mph14.3 kmh 30.22 in1023.4 mb 0.00 in0.0 mm 0.00 in0.0 mm 0.00 in0.0 mm
09:08 AM 65.7°F18.7°C 61.0°F16.1°C 85% 6.9 mph NW11.1 kmh NW 12.1 mph19.5 kmh 30.22 in1023.4 mb 0.00 in0.0 mm 0.00 in0.0 mm 0.00 in0.0 mm
09:18 AM 65.8°F18.8°C 61.2°F16.2°C 85% 6.0 mph NW9.7 kmh NW 12.1 mph19.5 kmh 30.22 in1023.4 mb 0.00 in0.0 mm 0.00 in0.0 mm 0.00 in0.0 mm
09:28 AM 66.4°F19.1°C 61.0°F16.1°C 83% 6.0 mph N9.7 kmh N 13.0 mph20.9 kmh 30.22 in1023.4 mb 0.00 in0.0 mm 0.00 in0.0 mm 0.00 in0.0 mm
09:38 AM 66.9°F19.4°C 61.2°F16.2°C 82% 4.9 mph NW7.9 kmh NW 10.1 mph16.3 kmh 30.22 in1023.4 mb 0.00 in0.0 mm 0.00 in0.0 mm 0.00 in0.0 mm
09:48 AM 68.0°F20.0°C 61.5°F16.4°C 80% 4.9 mph WNW7.9 kmh WNW 10.1 mph16.3 kmh 30.22 in1023.4 mb 0.00 in0.0 mm 0.00 in0.0 mm 0.00 in0.0 mm
09:58 AM 69.1°F20.6°C 61.9°F16.6°C 78% 6.0 mph N9.7 kmh N 11.0 mph17.7 kmh 30.21 in1023.0 mb 0.00 in0.0 mm 0.00 in0.0 mm 0.00 in0.0 mm
10:08 AM 69.3°F20.7°C 61.3°F16.3°C 76% 6.0 mph 9.7 kmh 13.0 mph20.9 kmh 30.22 in1023.4 mb 0.00 in0.0 mm 0.00 in0.0 mm 0.00 in0.0 mm
10:18 AM 69.4°F20.8°C 61.5°F16.4°C 76% 6.0 mph NW9.7 kmh NW 12.1 mph19.5 kmh 30.22 in1023.4 mb 0.00 in0.0 mm 0.00 in0.0 mm 0.00 in0.0 mm
10:28 AM 70.5°F21.4°C 62.2°F16.8°C 75% 4.9 mph WSW7.9 kmh WSW 13.0 mph20.9 kmh 30.22 in1023.4 mb 0.00 in0.0 mm 0.00 in0.0 mm 0.00 in0.0 mm
10:39 AM 71.4°F21.9°C 62.8°F17.1°C 74% 6.9 mph NNW11.1 kmh NNW 11.0 mph17.7 kmh 30.21 in1023.0 mb 0.00 in0.0 mm 0.00 in0.0 mm 0.00 in0.0 mm
10:49 AM 72.5°F22.5°C 62.6°F17.0°C 71% 4.9 mph NW7.9 kmh NW 10.1 mph16.3 kmh 30.21 in1023.0 mb 0.00 in0.0 mm 0.00 in0.0 mm 0.00 in0.0 mm
10:59 AM 72.7°F22.6°C 62.8°F17.1°C 71% 6.9 mph NW11.1 kmh NW 14.1 mph22.7 kmh 30.21 in1023.0 mb 0.00 in0.0 mm 0.00 in0.0 mm 0.00 in0.0 mm
11:09 AM 73.6°F23.1°C 62.8°F17.1°C 69% 6.0 mph NW9.7 kmh NW 14.1 mph22.7 kmh 30.21 in1023.0 mb 0.00 in0.0 mm 0.00 in0.0 mm 0.00 in0.0 mm
11:19 AM 73.4°F23.0°C 62.2°F16.8°C 68% 6.0 mph WSW9.7 kmh WSW 14.1 mph22.7 kmh 30.21 in1023.0 mb 0.00 in0.0 mm 0.00 in0.0 mm 0.00 in0.0 mm
11:29 AM 73.2°F22.9°C 62.4°F16.9°C 69% 8.9 mph N14.3 kmh N 15.0 mph24.1 kmh 30.21 in1023.0 mb 0.00 in0.0 mm 0.00 in0.0 mm 0.00 in0.0 mm
11:39 AM 73.6°F23.1°C 62.8°F17.1°C 69% 4.9 mph N7.9 kmh N 13.0 mph20.9 kmh 30.20 in1022.7 mb 0.00 in0.0 mm 0.00 in0.0 mm 0.00 in0.0 mm
11:49 AM 73.6°F23.1°C 62.8°F17.1°C 69% 8.1 mph NW13.0 kmh NW 13.0 mph20.9 kmh 30.20 in1022.7 mb 0.00 in0.0 mm 0.00 in0.0 mm 0.00 in0.0 mm
11:59 AM 74.3°F23.5°C 62.6°F17.0°C 67% 8.1 mph NNW13.0 kmh NNW 15.0 mph24.1 kmh 30.20 in1022.7 mb 0.00 in0.0 mm 0.00 in0.0 mm 0.00 in0.0 mm
12:09 PM 74.8°F23.8°C 63.1°F17.3°C 67% 6.0 mph NNW9.7 kmh NNW 15.0 mph24.1 kmh 30.19 in1022.4 mb 0.00 in0.0 mm 0.00 in0.0 mm 0.00 in0.0 mm
12:19 PM 75.4°F24.1°C 62.8°F17.1°C 65% 8.1 mph NW13.0 kmh NW 14.1 mph22.7 kmh 30.19 in1022.4 mb 0.00 in0.0 mm 0.00 in0.0 mm 0.00 in0.0 mm
12:29 PM 75.6°F24.2°C 62.6°F17.0°C 64% 6.0 mph N9.7 kmh N 13.0 mph20.9 kmh 30.18 in1022.0 mb 0.00 in0.0 mm 0.00 in0.0 mm 0.00 in0.0 mm
12:39 PM 75.4°F24.1°C 61.5°F16.4°C 62% 6.9 mph N11.1 kmh N 13.0 mph20.9 kmh 30.18 in1022.0 mb 0.00 in0.0 mm 0.00 in0.0 mm 0.00 in0.0 mm
12:49 PM 75.7°F24.3°C 62.8°F17.1°C 64% 6.9 mph NW11.1 kmh NW 11.0 mph17.7 kmh 30.18 in1022.0 mb 0.00 in0.0 mm 0.00 in0.0 mm 0.00 in0.0 mm
12:59 PM 77.2°F25.1°C 63.7°F17.6°C 63% 6.0 mph N9.7 kmh N 11.0 mph17.7 kmh 30.17 in1021.7 mb 0.00 in0.0 mm 0.00 in0.0 mm 0.00 in0.0 mm
01:09 PM 77.5°F25.3°C 63.0°F17.2°C 61% 6.9 mph N11.1 kmh N 15.0 mph24.1 kmh 30.17 in1021.7 mb 0.00 in0.0 mm 0.00 in0.0 mm 0.00 in0.0 mm
01:19 PM 77.7°F25.4°C 63.1°F17.3°C 61% 8.1 mph NNE13.0 kmh NNE 14.1 mph22.7 kmh 30.17 in1021.7 mb 0.00 in0.0 mm 0.00 in0.0 mm 0.00 in0.0 mm
01:29 PM 77.4°F25.2°C 62.4°F16.9°C 60% 6.0 mph W9.7 kmh W 14.1 mph22.7 kmh 30.16 in1021.3 mb 0.00 in0.0 mm 0.00 in0.0 mm 0.00 in0.0 mm
01:39 PM 77.7°F25.4°C 62.8°F17.1°C 60% 8.9 mph NNW14.3 kmh NNW 15.0 mph24.1 kmh 30.16 in1021.3 mb 0.00 in0.0 mm 0.00 in0.0 mm 0.00 in0.0 mm
01:49 PM 77.7°F25.4°C 63.1°F17.3°C 61% 10.1 mph N16.3 kmh N 15.0 mph24.1 kmh 30.16 in1021.3 mb 0.00 in0.0 mm 0.00 in0.0 mm 0.00 in0.0 mm
01:59 PM 76.6°F24.8°C 62.6°F17.0°C 62% 11.0 mph WNW17.7 kmh WNW 17.9 mph28.8 kmh 30.17 in1021.7 mb 0.00 in0.0 mm 0.00 in0.0 mm 0.00 in0.0 mm
02:09 PM 76.8°F24.9°C 62.8°F17.1°C 62% 10.1 mph N16.3 kmh N 16.1 mph25.9 kmh 30.17 in1021.7 mb 0.00 in0.0 mm 0.00 in0.0 mm 0.00 in0.0 mm
02:19 PM 76.1°F24.5°C 63.0°F17.2°C 64% 11.0 mph NW17.7 kmh NW 16.1 mph25.9 kmh 30.16 in1021.3 mb 0.00 in0.0 mm 0.00 in0.0 mm 0.00 in0.0 mm
02:29 PM 76.5°F24.7°C 63.0°F17.2°C 63% 11.0 mph N17.7 kmh N 17.0 mph27.4 kmh 30.16 in1021.3 mb 0.00 in0.0 mm 0.00 in0.0 mm 0.00 in0.0 mm
02:39 PM 76.8°F24.9°C 62.8°F17.1°C 62% 8.9 mph NW14.3 kmh NW 17.0 mph27.4 kmh 30.16 in1021.3 mb 0.00 in0.0 mm 0.00 in0.0 mm 0.00 in0.0 mm
02:49 PM 76.3°F24.6°C 62.8°F17.1°C 63% 8.1 mph NW13.0 kmh NW 13.0 mph20.9 kmh 30.15 in1021.0 mb 0.00 in0.0 mm 0.00 in0.0 mm 0.00 in0.0 mm
02:59 PM 75.7°F24.3°C 62.8°F17.1°C 64% 8.9 mph NNW14.3 kmh NNW 14.1 mph22.7 kmh 30.15 in1021.0 mb 0.00 in0.0 mm 0.00 in0.0 mm 0.00 in0.0 mm
03:09 PM 76.3°F24.6°C 63.1°F17.3°C 64% 6.9 mph NNW11.1 kmh NNW 13.0 mph20.9 kmh 30.15 in1021.0 mb 0.00 in0.0 mm 0.00 in0.0 mm 0.00 in0.0 mm
03:19 PM 76.6°F24.8°C 63.1°F17.3°C 63% 8.1 mph NW13.0 kmh NW 14.1 mph22.7 kmh 30.15 in1021.0 mb 0.00 in0.0 mm 0.00 in0.0 mm 0.00 in0.0 mm
03:29 PM 76.6°F24.8°C 62.6°F17.0°C 62% 8.1 mph NW13.0 kmh NW 13.0 mph20.9 kmh 30.14 in1020.7 mb 0.00 in0.0 mm 0.00 in0.0 mm 0.00 in0.0 mm
03:39 PM 76.6°F24.8°C 62.6°F17.0°C 62% 8.1 mph NNW13.0 kmh NNW 14.1 mph22.7 kmh 30.14 in1020.7 mb 0.00 in0.0 mm 0.00 in0.0 mm 0.00 in0.0 mm
03:49 PM 76.8°F24.9°C 62.4°F16.9°C 61% 8.1 mph WNW13.0 kmh WNW 15.0 mph24.1 kmh 30.15 in1021.0 mb 0.00 in0.0 mm 0.00 in0.0 mm 0.00 in0.0 mm
03:59 PM 76.6°F24.8°C 61.2°F16.2°C 59% 8.1 mph NNW13.0 kmh NNW 16.1 mph25.9 kmh 30.14 in1020.7 mb 0.00 in0.0 mm 0.00 in0.0 mm 0.00 in0.0 mm
04:09 PM 76.3°F24.6°C 60.4°F15.8°C 58% 8.9 mph NNW14.3 kmh NNW 17.0 mph27.4 kmh 30.14 in1020.7 mb 0.00 in0.0 mm 0.00 in0.0 mm 0.00 in0.0 mm
04:19 PM 76.5°F24.7°C 60.6°F15.9°C 58% 11.0 mph NNW17.7 kmh NNW 19.9 mph32.0 kmh 30.14 in1020.7 mb 0.00 in0.0 mm 0.00 in0.0 mm 0.00 in0.0 mm
04:29 PM 76.1°F24.5°C 61.7°F16.5°C 61% 12.1 mph NW19.5 kmh NW 19.9 mph32.0 kmh 30.14 in1020.7 mb 0.00 in0.0 mm 0.00 in0.0 mm 0.00 in0.0 mm
04:39 PM 76.6°F24.8°C 61.2°F16.2°C 59% 8.1 mph N13.0 kmh N 16.1 mph25.9 kmh 30.14 in1020.7 mb 0.00 in0.0 mm 0.00 in0.0 mm 0.00 in0.0 mm
04:49 PM 75.9°F24.4°C 61.5°F16.4°C 61% 10.1 mph N16.3 kmh N 16.1 mph25.9 kmh 30.14 in1020.7 mb 0.00 in0.0 mm 0.00 in0.0 mm 0.00 in0.0 mm
04:59 PM 75.6°F24.2°C 61.2°F16.2°C 61% 10.1 mph NW16.3 kmh NW 17.9 mph28.8 kmh 30.14 in1020.7 mb 0.00 in0.0 mm 0.00 in0.0 mm 0.00 in0.0 mm
05:09 PM 75.4°F24.1°C 61.9°F16.6°C 63% 8.9 mph WNW14.3 kmh WNW 13.0 mph20.9 kmh 30.15 in1021.0 mb 0.00 in0.0 mm 0.00 in0.0 mm 0.00 in0.0 mm
05:19 PM 75.0°F23.9°C 62.1°F16.7°C 64% 8.9 mph NNW14.3 kmh NNW 15.0 mph24.1 kmh 30.15 in1021.0 mb 0.00 in0.0 mm 0.00 in0.0 mm 0.00 in0.0 mm
05:29 PM 74.3°F23.5°C 61.7°F16.5°C 65% 8.9 mph NW14.3 kmh NW 16.1 mph25.9 kmh 30.15 in1021.0 mb 0.00 in0.0 mm 0.00 in0.0 mm 0.00 in0.0 mm
05:39 PM 73.8°F23.2°C 61.7°F16.5°C 66% 6.9 mph N11.1 kmh N 15.0 mph24.1 kmh 30.15 in1021.0 mb 0.00 in0.0 mm 0.00 in0.0 mm 0.00 in0.0 mm
05:49 PM 72.9°F22.7°C 61.7°F16.5°C 68% 8.9 mph NW14.3 kmh NW 17.0 mph27.4 kmh 30.16 in1021.3 mb 0.00 in0.0 mm 0.00 in0.0 mm 0.00 in0.0 mm
05:59 PM 71.8°F22.1°C 61.5°F16.4°C 70% 8.9 mph NNW14.3 kmh NNW 13.0 mph20.9 kmh 30.16 in1021.3 mb 0.00 in0.0 mm 0.00 in0.0 mm 0.00 in0.0 mm
06:09 PM 70.9°F21.6°C 61.3°F16.3°C 72% 6.0 mph N9.7 kmh N 10.1 mph16.3 kmh 30.16 in1021.3 mb 0.00 in0.0 mm 0.00 in0.0 mm 0.00 in0.0 mm
06:19 PM 70.2°F21.2°C 61.2°F16.2°C 73% 6.0 mph NW9.7 kmh NW 11.0 mph17.7 kmh 30.16 in1021.3 mb 0.00 in0.0 mm 0.00 in0.0 mm 0.00 in0.0 mm
06:29 PM 69.4°F20.8°C 61.2°F16.2°C 75% 6.0 mph NNW9.7 kmh NNW 11.0 mph17.7 kmh 30.16 in1021.3 mb 0.00 in0.0 mm 0.00 in0.0 mm 0.00 in0.0 mm
06:39 PM 68.7°F20.4°C 60.8°F16.0°C 76% 4.0 mph NW6.4 kmh NW 8.9 mph14.3 kmh 30.16 in1021.3 mb 0.00 in0.0 mm 0.00 in0.0 mm 0.00 in0.0 mm
06:49 PM 68.2°F20.1°C 60.6°F15.9°C 77% 4.9 mph NNW7.9 kmh NNW 11.0 mph17.7 kmh 30.16 in1021.3 mb 0.00 in0.0 mm 0.00 in0.0 mm 0.00 in0.0 mm
06:59 PM 67.5°F19.7°C 60.8°F16.0°C 79% 6.0 mph WNW9.7 kmh WNW 11.0 mph17.7 kmh 30.17 in1021.7 mb 0.00 in0.0 mm 0.00 in0.0 mm 0.00 in0.0 mm
07:09 PM 66.7°F19.3°C 60.8°F16.0°C 81% 6.9 mph NW11.1 kmh NW 14.1 mph22.7 kmh 30.17 in1021.7 mb 0.00 in0.0 mm 0.00 in0.0 mm 0.00 in0.0 mm
07:19 PM 66.4°F19.1°C 60.8°F16.0°C 82% 4.9 mph 7.9 kmh 11.0 mph17.7 kmh 30.18 in1022.0 mb 0.00 in0.0 mm 0.00 in0.0 mm 0.00 in0.0 mm
07:29 PM 65.8°F18.8°C 60.6°F15.9°C 83% 4.9 mph N7.9 kmh N 11.0 mph17.7 kmh 30.18 in1022.0 mb 0.00 in0.0 mm 0.00 in0.0 mm 0.00 in0.0 mm
07:39 PM 65.5°F18.6°C 60.4°F15.8°C 84% 2.9 mph NNW4.7 kmh NNW 4.9 mph7.9 kmh 30.18 in1022.0 mb 0.00 in0.0 mm 0.00 in0.0 mm 0.00 in0.0 mm
07:49 PM 65.1°F18.4°C 60.4°F15.8°C 85% 2.9 mph NW4.7 kmh NW 6.9 mph11.1 kmh 30.19 in1022.4 mb 0.00 in0.0 mm 0.00 in0.0 mm 0.00 in0.0 mm
07:59 PM 64.8°F18.2°C 60.4°F15.8°C 86% 4.0 mph NNW6.4 kmh NNW 8.1 mph13.0 kmh 30.19 in1022.4 mb 0.00 in0.0 mm 0.00 in0.0 mm 0.00 in0.0 mm
08:09 PM 64.6°F18.1°C 60.6°F15.9°C 87% 4.0 mph WNW6.4 kmh WNW 8.1 mph13.0 kmh 30.19 in1022.4 mb 0.00 in0.0 mm 0.00 in0.0 mm 0.00 in0.0 mm
08:19 PM 64.6°F18.1°C 61.0°F16.1°C 88% 2.9 mph N4.7 kmh N 8.9 mph14.3 kmh 30.19 in1022.4 mb 0.00 in0.0 mm 0.00 in0.0 mm 0.00 in0.0 mm
08:29 PM 64.2°F17.9°C 60.6°F15.9°C 88% 2.0 mph NNW3.2 kmh NNW 4.9 mph7.9 kmh 30.20 in1022.7 mb 0.00 in0.0 mm 0.00 in0.0 mm 0.00 in0.0 mm
08:40 PM 63.9°F17.7°C 60.3°F15.7°C 88% 2.9 mph NNW4.7 kmh NNW 6.0 mph9.7 kmh 30.20 in1022.7 mb 0.00 in0.0 mm 0.00 in0.0 mm 0.00 in0.0 mm
08:50 PM 63.3°F17.4°C 59.7°F15.4°C 88% 0.9 mph NW1.4 kmh NW 4.0 mph6.4 kmh 30.20 in1022.7 mb 0.00 in0.0 mm 0.00 in0.0 mm 0.00 in0.0 mm
09:00 PM 62.8°F17.1°C 59.5°F15.3°C 89% 0.9 mph NW1.4 kmh NW 2.0 mph3.2 kmh 30.20 in1022.7 mb 0.00 in0.0 mm 0.00 in0.0 mm 0.00 in0.0 mm
09:10 PM 62.6°F17.0°C 59.5°F15.3°C 90% 0.9 mph NW1.4 kmh NW 2.9 mph4.7 kmh 30.20 in1022.7 mb 0.00 in0.0 mm 0.00 in0.0 mm 0.00 in0.0 mm
09:20 PM 63.0°F17.2°C 60.3°F15.7°C 91% 2.0 mph NW3.2 kmh NW 4.0 mph6.4 kmh 30.20 in1022.7 mb 0.00 in0.0 mm 0.00 in0.0 mm 0.00 in0.0 mm
09:30 PM 63.0°F17.2°C 60.3°F15.7°C 91% 0.9 mph NW1.4 kmh NW 2.9 mph4.7 kmh 30.20 in1022.7 mb 0.00 in0.0 mm 0.00 in0.0 mm 0.00 in0.0 mm
09:40 PM 62.4°F16.9°C 59.7°F15.4°C 91% Calm Calm 0.9 mph1.4 kmh 30.20 in1022.7 mb 0.00 in0.0 mm 0.00 in0.0 mm 0.00 in0.0 mm
09:50 PM 62.1°F16.7°C 59.4°F15.2°C 91% 0.9 mph NW1.4 kmh NW 2.0 mph3.2 kmh 30.20 in1022.7 mb 0.00 in0.0 mm 0.00 in0.0 mm 0.00 in0.0 mm
10:00 PM 61.9°F16.6°C 59.5°F15.3°C 92% 2.0 mph NW3.2 kmh NW 2.9 mph4.7 kmh 30.20 in1022.7 mb 0.00 in0.0 mm 0.00 in0.0 mm 0.00 in0.0 mm
10:10 PM 62.4°F16.9°C 60.1°F15.6°C 92% 2.0 mph NW3.2 kmh NW 2.9 mph4.7 kmh 30.20 in1022.7 mb 0.00 in0.0 mm 0.00 in0.0 mm 0.00 in0.0 mm
10:20 PM 63.0°F17.2°C 61.0°F16.1°C 93% 2.0 mph NW3.2 kmh NW 4.0 mph6.4 kmh 30.20 in1022.7 mb 0.00 in0.0 mm 0.00 in0.0 mm 0.00 in0.0 mm
10:30 PM 63.1°F17.3°C 61.2°F16.2°C 93% 0.9 mph NW1.4 kmh NW 2.9 mph4.7 kmh 30.20 in1022.7 mb 0.00 in0.0 mm 0.00 in0.0 mm 0.00 in0.0 mm
10:40 PM 63.3°F17.4°C 61.0°F16.1°C 92% 0.9 mph NW1.4 kmh NW 4.0 mph6.4 kmh 30.20 in1022.7 mb 0.00 in0.0 mm 0.00 in0.0 mm 0.00 in0.0 mm
10:51 PM 63.3°F17.4°C 61.0°F16.1°C 92% 0.9 mph NW1.4 kmh NW 2.0 mph3.2 kmh 30.19 in1022.4 mb 0.00 in0.0 mm 0.00 in0.0 mm 0.00 in0.0 mm
11:01 PM 63.3°F17.4°C 61.0°F16.1°C 92% Calm Calm 2.9 mph4.7 kmh 30.19 in1022.4 mb 0.00 in0.0 mm 0.00 in0.0 mm 0.00 in0.0 mm
11:11 PM 63.5°F17.5°C 61.2°F16.2°C 92% 0.9 mph NW1.4 kmh NW 2.9 mph4.7 kmh 30.18 in1022.0 mb 0.00 in0.0 mm 0.00 in0.0 mm 0.00 in0.0 mm
11:21 PM 63.7°F17.6°C 61.3°F16.3°C 92% 0.9 mph NW1.4 kmh NW 2.9 mph4.7 kmh 30.18 in1022.0 mb 0.00 in0.0 mm 0.00 in0.0 mm 0.00 in0.0 mm
11:31 PM 63.9°F17.7°C 61.5°F16.4°C 92% 2.0 mph NW3.2 kmh NW 4.0 mph6.4 kmh 30.19 in1022.4 mb 0.00 in0.0 mm 0.00 in0.0 mm 0.00 in0.0 mm
11:41 PM 64.0°F17.8°C 61.7°F16.5°C 92% 2.9 mph NW4.7 kmh NW 6.0 mph9.7 kmh 30.19 in1022.4 mb 0.00 in0.0 mm 0.00 in0.0 mm 0.00 in0.0 mm
11:51 PM 64.2°F17.9°C 61.9°F16.6°C 92% 4.9 mph NNW7.9 kmh NNW 8.1 mph13.0 kmh 30.19 in1022.4 mb 0.00 in0.0 mm 0.00 in0.0 mm 0.00 in0.0 mm